Time;durP1;ratioP1;P1;durP2;ratioP2;P2;SDS_P1;SDS_P2;PMS_P1;PMS_P2;Temp;Humidity;BMP_temperature;BMP_pressure;BME280_temperature;BME280_humidity;BME280_pressure;Samples;Min_cycle;Max_cycle;Signal;HPM_P1;HPM_P2
2022/08/25 00:00:44;;;;;;;10.90;5.93;;;21.40;63.10;;;;;;5030341;28;20468;-74
2022/08/25 00:03:11;;;;;;;6.43;5.57;;;21.30;62.90;;;;;;5031290;28;20049;-74
2022/08/25 00:05:37;;;;;;;8.07;5.57;;;21.30;62.80;;;;;;5014166;28;20088;-73
2022/08/25 00:08:05;;;;;;;8.70;6.03;;;21.30;62.90;;;;;;5013804;28;20108;-74
2022/08/25 00:10:32;;;;;;;10.77;5.78;;;21.30;63.70;;;;;;5029675;28;20021;-74
2022/08/25 00:12:58;;;;;;;8.30;5.80;;;21.30;63.80;;;;;;5031529;28;20032;-74
2022/08/25 00:15:24;;;;;;;8.10;5.80;;;21.30;63.80;;;;;;5030248;28;20040;-73
2022/08/25 00:17:50;;;;;;;6.97;5.03;;;21.30;63.60;;;;;;5032190;28;20497;-74
2022/08/25 00:20:16;;;;;;;6.90;5.15;;;21.30;63.40;;;;;;5013845;28;20045;-75
2022/08/25 00:22:42;;;;;;;8.35;4.97;;;21.30;63.40;;;;;;5031271;28;20045;-74
2022/08/25 00:25:08;;;;;;;7.53;5.45;;;21.30;64.30;;;;;;5031475;28;20028;-74
2022/08/25 00:27:34;;;;;;;6.20;5.38;;;21.30;63.60;;;;;;5031545;28;20022;-74
2022/08/25 00:30:00;;;;;;;7.75;5.80;;;21.30;64.00;;;;;;5030285;28;20104;-75
2022/08/25 00:32:26;;;;;;;6.75;5.57;;;21.30;64.20;;;;;;5031440;28;20104;-75
2022/08/25 00:34:52;;;;;;;8.77;5.75;;;21.20;64.30;;;;;;5034251;28;20101;-75
2022/08/25 00:37:19;;;;;;;7.25;5.43;;;21.20;64.10;;;;;;5031407;28;20024;-75
2022/08/25 00:39:44;;;;;;;7.38;5.68;;;21.20;63.90;;;;;;5031344;28;20021;-75
2022/08/25 00:42:11;;;;;;;6.20;5.60;;;21.20;63.90;;;;;;5031236;28;20022;-75
2022/08/25 00:44:37;;;;;;;6.97;6.07;;;21.20;64.00;;;;;;5031542;28;20041;-75
2022/08/25 00:47:05;;;;;;;9.50;6.22;;;21.20;64.10;;;;;;5014868;28;20380;-75
2022/08/25 00:49:48;;;;;;;7.32;6.32;;;21.10;64.10;;;;;;5032705;28;20494;-76
2022/08/25 00:52:14;;;;;;;7.53;6.30;;;21.10;64.60;;;;;;5030964;28;20026;-74
2022/08/25 00:54:54;;;;;;;8.40;5.80;;;21.20;64.50;;;;;;5031196;28;20140;-74
2022/08/25 00:57:25;;;;;;;13.65;6.38;;;21.10;64.40;;;;;;5017159;28;20064;-75
2022/08/25 00:59:51;;;;;;;8.25;5.25;;;21.10;64.50;;;;;;5032145;28;20030;-74
2022/08/25 01:02:17;;;;;;;7.25;5.85;;;21.10;64.30;;;;;;5035289;28;20072;-73
2022/08/25 01:04:45;;;;;;;8.82;6.20;;;21.10;64.40;;;;;;5036129;28;20026;-74
2022/08/25 01:07:11;;;;;;;8.10;6.38;;;21.10;64.70;;;;;;5017046;28;20026;-74
2022/08/25 01:09:37;;;;;;;7.60;5.88;;;21.10;64.80;;;;;;5034865;28;20030;-74
2022/08/25 01:12:04;;;;;;;7.97;6.18;;;21.10;64.80;;;;;;5034679;28;20029;-74
2022/08/25 01:14:31;;;;;;;9.63;5.90;;;21.10;65.00;;;;;;5017285;28;20446;-74
2022/08/25 01:16:58;;;;;;;6.80;5.53;;;21.20;65.30;;;;;;5034854;28;20025;-74
2022/08/25 01:19:26;;;;;;;13.82;5.57;;;21.20;65.50;;;;;;5016765;28;20018;-74
2022/08/25 01:21:52;;;;;;;9.93;5.95;;;21.20;65.70;;;;;;5034514;28;20041;-74
2022/08/25 01:24:41;;;;;;;8.35;6.03;;;21.30;65.80;;;;;;5033566;28;20100;-73
2022/08/25 01:27:07;;;;;;;7.20;5.82;;;21.40;65.90;;;;;;5015554;28;20108;-73
2022/08/25 01:29:34;;;;;;;7.38;6.55;;;21.40;65.60;;;;;;5018294;28;20021;-74
2022/08/25 01:32:05;;;;;;;6.72;5.93;;;21.50;65.70;;;;;;5035983;28;20028;-74
2022/08/25 01:34:34;;;;;;;8.00;5.75;;;21.60;65.70;;;;;;5034850;28;20025;-74
2022/08/25 01:37:00;;;;;;;9.13;5.43;;;21.70;65.60;;;;;;5016657;28;20044;-73
2022/08/25 01:39:28;;;;;;;9.05;6.03;;;21.70;65.50;;;;;;5034148;28;20047;-74
2022/08/25 01:42:07;;;;;;;6.45;5.45;;;21.80;65.40;;;;;;5034176;28;20017;-74
2022/08/25 01:44:37;;;;;;;6.13;5.05;;;21.80;65.30;;;;;;5032431;28;20021;-74
2022/08/25 01:47:04;;;;;;;13.65;5.32;;;21.90;65.10;;;;;;5034337;28;20041;-74
2022/08/25 01:49:31;;;;;;;6.13;5.40;;;21.90;65.00;;;;;;5034484;28;20040;-74
2022/08/25 01:52:04;;;;;;;5.43;4.93;;;22.00;65.10;;;;;;5034314;28;20097;-73
2022/08/25 01:54:30;;;;;;;8.65;5.07;;;22.00;65.10;;;;;;5034461;28;20160;-74
2022/08/25 01:56:57;;;;;;;7.40;5.80;;;22.10;64.90;;;;;;5016477;28;20116;-74
2022/08/25 01:59:24;;;;;;;6.85;5.47;;;22.10;64.60;;;;;;5034352;28;20026;-74
2022/08/25 02:01:50;;;;;;;7.47;5.50;;;22.10;64.60;;;;;;5034289;28;20025;-74
2022/08/25 02:04:16;;;;;;;9.02;6.03;;;22.20;64.60;;;;;;5034429;28;20029;-74
2022/08/25 02:06:42;;;;;;;6.35;5.63;;;22.20;64.40;;;;;;5032339;28;20394;-74
2022/08/25 02:09:11;;;;;;;7.32;4.75;;;22.20;64.30;;;;;;5032569;28;20386;-74
2022/08/25 02:11:39;;;;;;;12.98;5.82;;;22.20;64.30;;;;;;5050052;28;20043;-74
2022/08/25 02:14:06;;;;;;;8.45;5.68;;;22.20;64.00;;;;;;5053989;28;20048;-73
2022/08/25 02:16:35;;;;;;;7.55;5.38;;;22.20;63.80;;;;;;5054124;28;20028;-74
2022/08/25 02:19:03;;;;;;;9.02;5.93;;;22.20;63.80;;;;;;5053795;28;20405;-74
2022/08/25 02:21:28;;;;;;;5.63;5.03;;;22.10;63.70;;;;;;5053663;28;20052;-74
2022/08/25 02:23:55;;;;;;;9.43;5.03;;;22.00;63.60;;;;;;5053952;28;20374;-74
2022/08/25 02:26:21;;;;;;;7.47;5.75;;;22.00;63.70;;;;;;5035918;28;20139;-75
2022/08/25 02:28:48;;;;;;;8.35;5.63;;;21.90;63.70;;;;;;5035840;28;20037;-75
2022/08/25 02:31:15;;;;;;;7.18;5.30;;;21.90;63.80;;;;;;5053644;28;20032;-75
2022/08/25 02:33:41;;;;;;;9.50;6.38;;;21.80;64.00;;;;;;5029141;28;20034;-75
2022/08/25 02:36:07;;;;;;;9.75;6.70;;;21.80;64.20;;;;;;5033579;28;20029;-75
2022/08/25 02:38:34;;;;;;;10.60;7.05;;;21.70;64.60;;;;;;5033547;28;20022;-75
2022/08/25 02:41:00;;;;;;;8.25;6.07;;;21.60;65.20;;;;;;5033553;28;20100;-75
2022/08/25 02:43:27;;;;;;;7.85;5.90;;;21.60;65.20;;;;;;5015713;28;20478;-75
2022/08/25 02:45:55;;;;;;;7.38;5.60;;;21.60;65.20;;;;;;5032157;28;20407;-74
2022/08/25 02:48:21;;;;;;;8.30;6.05;;;21.50;65.10;;;;;;5033358;28;20491;-75
2022/08/25 02:50:51;;;;;;;12.45;6.50;;;21.40;65.00;;;;;;5033251;28;20033;-75
2022/08/25 02:53:18;;;;;;;8.07;6.10;;;21.40;65.10;;;;;;5031996;28;20021;-75
2022/08/25 02:55:43;;;;;;;7.05;5.85;;;21.30;65.30;;;;;;5033096;28;20025;-75
2022/08/25 02:58:09;;;;;;;8.93;6.68;;;21.30;65.60;;;;;;5033256;28;20022;-75
2022/08/25 03:00:35;;;;;;;10.02;6.90;;;21.30;65.80;;;;;;5033048;28;20026;-75
2022/08/25 03:03:02;;;;;;;13.02;6.65;;;21.30;66.70;;;;;;5033108;28;20022;-74
2022/08/25 03:05:28;;;;;;;8.23;6.22;;;21.30;66.40;;;;;;5052895;28;20027;-75
2022/08/25 03:07:55;;;;;;;9.10;6.45;;;21.30;66.30;;;;;;5035063;28;20021;-74
2022/08/25 03:10:20;;;;;;;8.63;6.45;;;21.30;66.90;;;;;;5052925;28;20025;-74
2022/08/25 03:12:46;;;;;;;11.57;6.10;;;21.30;66.30;;;;;;5052753;28;20108;-75
2022/08/25 03:15:17;;;;;;;9.15;5.53;;;21.30;66.30;;;;;;5051422;28;20056;-75
2022/08/25 03:17:45;;;;;;;12.35;6.25;;;21.30;66.60;;;;;;5052663;28;20440;-75
2022/08/25 03:20:11;;;;;;;11.63;6.65;;;21.40;66.90;;;;;;5051767;28;20100;-75
2022/08/25 03:22:37;;;;;;;12.88;7.32;;;21.40;67.00;;;;;;5052457;28;20102;-75
2022/08/25 03:27:49;;;;;;;9.70;6.70;;;21.50;67.30;;;;;;5052612;28;20264;-75
2022/08/25 03:30:16;;;;;;;9.45;7.28;;;21.60;67.10;;;;;;5052469;28;20044;-75
2022/08/25 03:32:41;;;;;;;9.07;6.13;;;21.60;67.20;;;;;;5048223;28;20046;-75
2022/08/25 03:35:09;;;;;;;8.30;6.53;;;21.60;67.00;;;;;;5030863;28;20071;-75
2022/08/25 03:37:36;;;;;;;8.93;6.90;;;21.60;66.70;;;;;;5032495;28;20029;-75
2022/08/25 03:40:07;;;;;;;9.85;6.88;;;21.60;66.50;;;;;;5032335;28;20049;-75
2022/08/25 03:42:34;;;;;;;6.90;5.80;;;21.60;66.40;;;;;;5032338;28;20059;-75
2022/08/25 03:45:05;;;;;;;9.57;6.40;;;21.60;66.20;;;;;;5032328;28;20021;-75
2022/08/25 03:47:30;;;;;;;13.43;7.22;;;21.60;66.30;;;;;;5032295;28;20045;-74
2022/08/25 03:49:56;;;;;;;9.95;6.88;;;21.60;66.40;;;;;;5032162;28;20064;-75
2022/08/25 03:52:22;;;;;;;8.13;6.70;;;21.60;66.70;;;;;;5032355;28;20049;-75
2022/08/25 03:54:48;;;;;;;9.18;6.53;;;21.60;66.80;;;;;;5032138;28;20489;-75
2022/08/25 03:57:14;;;;;;;12.13;7.43;;;21.60;66.80;;;;;;5030768;28;20026;-75
2022/08/25 03:59:39;;;;;;;7.60;6.03;;;21.60;66.90;;;;;;5032257;28;20025;-75
2022/08/25 04:02:06;;;;;;;8.82;6.63;;;21.70;66.80;;;;;;5032184;28;20049;-75
2022/08/25 04:04:33;;;;;;;12.98;7.15;;;21.70;66.70;;;;;;5043852;28;20078;-75
2022/08/25 04:06:59;;;;;;;11.27;7.03;;;21.70;66.50;;;;;;5051703;28;20033;-75
2022/08/25 04:09:25;;;;;;;9.77;7.57;;;21.70;66.60;;;;;;5051950;28;20449;-75
2022/08/25 04:11:51;;;;;;;9.73;8.10;;;21.70;66.50;;;;;;5043148;28;20061;-75
2022/08/25 04:14:18;;;;;;;12.98;7.70;;;21.70;66.50;;;;;;5051756;28;20448;-75
2022/08/25 04:16:44;;;;;;;9.07;7.03;;;21.60;66.30;;;;;;5051728;28;20021;-74
2022/08/25 04:19:10;;;;;;;10.13;7.05;;;21.60;66.30;;;;;;5051594;28;20368;-74
2022/08/25 04:21:39;;;;;;;11.65;7.70;;;21.60;66.30;;;;;;5051601;28;20494;-75
2022/08/25 04:24:07;;;;;;;9.20;7.20;;;21.50;66.60;;;;;;5051691;28;20021;-75
2022/08/25 04:26:36;;;;;;;8.27;7.40;;;21.50;66.60;;;;;;5051611;28;20029;-74
2022/08/25 04:29:04;;;;;;;9.13;6.85;;;21.50;66.80;;;;;;5051584;28;20029;-75
2022/08/25 04:31:31;;;;;;;9.95;7.15;;;21.50;67.10;;;;;;5031291;28;20021;-75
2022/08/25 04:33:57;;;;;;;9.80;7.72;;;21.50;67.60;;;;;;5042348;28;20070;-74
2022/08/25 04:36:23;;;;;;;16.60;7.63;;;21.50;67.90;;;;;;5055566;28;20033;-74
2022/08/25 04:38:49;;;;;;;11.85;6.75;;;21.50;68.10;;;;;;5055650;28;20089;-74
2022/08/25 04:41:19;;;;;;;14.95;7.85;;;21.60;68.10;;;;;;5055644;28;20028;-75
2022/08/25 04:43:44;;;;;;;14.80;7.25;;;21.70;68.20;;;;;;5037656;28;20052;-75
2022/08/25 04:46:16;;;;;;;13.27;7.50;;;21.70;68.10;;;;;;5055489;28;20129;-74
2022/08/25 04:48:46;;;;;;;15.50;8.05;;;21.80;68.00;;;;;;5037559;28;20466;-75
2022/08/25 04:51:15;;;;;;;8.45;6.47;;;21.90;68.00;;;;;;5037457;28;20418;-75
2022/08/25 04:53:42;;;;;;;8.90;6.65;;;21.90;67.80;;;;;;5055421;28;20051;-75
2022/08/25 04:56:10;;;;;;;10.32;7.45;;;22.00;67.70;;;;;;5055300;28;20021;-75
2022/08/25 04:58:37;;;;;;;10.63;7.07;;;22.00;67.60;;;;;;5055231;28;20032;-74
2022/08/25 05:01:09;;;;;;;9.63;7.50;;;22.10;67.60;;;;;;5037404;28;20441;-74
2022/08/25 05:03:35;;;;;;;8.75;6.97;;;22.10;67.50;;;;;;5033493;28;20029;-74
2022/08/25 05:06:01;;;;;;;10.88;7.93;;;22.20;67.30;;;;;;5033973;28;20021;-75
2022/08/25 05:08:27;;;;;;;7.53;6.60;;;22.20;67.10;;;;;;5034597;28;20474;-75
2022/08/25 05:10:55;;;;;;;10.30;6.47;;;22.30;66.80;;;;;;5035093;28;20163;-74
2022/08/25 05:13:22;;;;;;;10.10;6.72;;;22.30;66.60;;;;;;5017548;28;20068;-74
2022/08/25 05:15:58;;;;;;;11.00;6.95;;;22.40;66.40;;;;;;5034741;28;20025;-75
2022/08/25 05:18:27;;;;;;;7.90;6.40;;;22.30;66.20;;;;;;5016894;28;20025;-75
2022/08/25 05:20:53;;;;;;;8.18;6.88;;;22.40;66.10;;;;;;5034555;28;20055;-74
2022/08/25 05:23:20;;;;;;;11.45;7.45;;;22.30;66.00;;;;;;5034572;28;20025;-74
2022/08/25 05:25:47;;;;;;;8.98;6.80;;;22.40;66.20;;;;;;5034627;28;20079;-74
2022/08/25 05:28:13;;;;;;;10.13;7.10;;;22.40;66.30;;;;;;5034506;28;20032;-74
2022/08/25 05:30:41;;;;;;;8.60;7.38;;;22.40;66.50;;;;;;5034551;28;20029;-75
2022/08/25 05:33:08;;;;;;;11.93;7.05;;;22.50;66.70;;;;;;5016266;28;20025;-75
2022/08/25 05:35:37;;;;;;;13.30;8.23;;;22.50;66.70;;;;;;5054215;28;20029;-75
2022/08/25 05:38:04;;;;;;;12.48;8.02;;;22.60;66.70;;;;;;5041827;28;20109;-75
2022/08/25 05:40:30;;;;;;;10.85;6.30;;;22.60;66.50;;;;;;5016607;28;20048;-75
2022/08/25 05:42:56;;;;;;;10.45;6.72;;;22.70;66.30;;;;;;5033186;28;20100;-75
2022/08/25 05:45:22;;;;;;;9.98;6.90;;;22.80;66.30;;;;;;5017742;28;20133;-75
2022/08/25 05:47:49;;;;;;;12.75;7.28;;;22.80;66.00;;;;;;5035403;28;20135;-75
2022/08/25 05:50:15;;;;;;;10.95;6.93;;;22.90;65.80;;;;;;5033824;28;20491;-75
2022/08/25 05:52:41;;;;;;;11.77;7.78;;;22.90;65.80;;;;;;5033986;28;20033;-74
2022/08/25 05:55:07;;;;;;;11.40;7.53;;;23.00;65.70;;;;;;5033650;28;20014;-75
2022/08/25 05:57:34;;;;;;;11.18;7.35;;;23.00;65.40;;;;;;5032787;28;20026;-75
2022/08/25 06:00:00;;;;;;;14.00;7.90;;;23.10;65.30;;;;;;5036103;28;20037;-75
2022/08/25 06:02:44;;;;;;;15.20;8.02;;;23.10;65.00;;;;;;5034934;28;20434;-75
2022/08/25 06:05:16;;;;;;;9.77;7.70;;;23.20;65.10;;;;;;5039353;28;20022;-75
2022/08/25 06:07:43;;;;;;;14.13;8.35;;;23.20;65.10;;;;;;5034430;28;20425;-75
2022/08/25 06:10:10;;;;;;;10.57;7.85;;;23.30;65.00;;;;;;5035225;28;20134;-74
2022/08/25 06:12:36;;;;;;;12.90;8.25;;;23.30;64.80;;;;;;5017331;28;20553;-75
2022/08/25 06:15:04;;;;;;;12.55;7.90;;;23.40;64.80;;;;;;5035161;28;20413;-75
2022/08/25 06:17:30;;;;;;;17.48;8.20;;;23.50;64.70;;;;;;5034977;28;20108;-74
2022/08/25 06:19:56;;;;;;;18.33;8.20;;;23.60;64.30;;;;;;5035909;28;20064;-75
2022/08/25 06:22:24;;;;;;;9.77;7.53;;;23.70;64.20;;;;;;5034664;28;20042;-75
2022/08/25 06:24:50;;;;;;;11.93;8.10;;;23.70;64.10;;;;;;5035324;28;20049;-75
2022/08/25 06:27:16;;;;;;;17.05;7.82;;;23.80;63.60;;;;;;5032915;28;20029;-75
2022/08/25 06:29:42;;;;;;;21.42;8.38;;;23.80;63.60;;;;;;5036718;28;20035;-74
2022/08/25 06:32:08;;;;;;;13.30;8.60;;;23.80;63.40;;;;;;5036749;28;20105;-74
2022/08/25 06:34:33;;;;;;;10.13;7.88;;;23.90;63.40;;;;;;5034803;28;20390;-74
2022/08/25 06:37:00;;;;;;;13.82;7.82;;;23.90;63.30;;;;;;5034380;28;20049;-74
2022/08/25 06:39:25;;;;;;;12.88;8.40;;;23.90;63.10;;;;;;5034464;28;20025;-74
2022/08/25 06:41:56;;;;;;;14.30;7.18;;;24.00;63.00;;;;;;5034516;28;20028;-74
2022/08/25 06:44:22;;;;;;;12.75;8.88;;;24.00;63.10;;;;;;5034453;28;20060;-74
2022/08/25 06:46:49;;;;;;;8.57;7.28;;;24.10;62.80;;;;;;5034379;28;20021;-75
2022/08/25 06:49:15;;;;;;;10.18;7.85;;;24.10;62.80;;;;;;5034216;28;20432;-74
2022/08/25 06:51:42;;;;;;;9.30;7.70;;;24.20;62.70;;;;;;5034267;28;20025;-74
2022/08/25 06:54:09;;;;;;;8.85;7.80;;;24.30;62.70;;;;;;5034296;28;20021;-74
2022/08/25 06:56:35;;;;;;;10.80;7.60;;;24.40;62.40;;;;;;5034194;28;20026;-74
2022/08/25 06:59:03;;;;;;;13.63;8.48;;;24.50;62.30;;;;;;5034201;28;20075;-74
2022/08/25 07:01:30;;;;;;;9.07;7.65;;;24.50;61.70;;;;;;5015654;28;20036;-74
2022/08/25 07:03:59;;;;;;;8.80;7.72;;;24.50;61.50;;;;;;5038554;28;20107;-74
2022/08/25 07:06:27;;;;;;;10.93;7.30;;;24.60;61.40;;;;;;5053933;28;20474;-74
2022/08/25 07:08:53;;;;;;;9.75;7.53;;;24.70;61.50;;;;;;5053894;28;20493;-74
2022/08/25 07:11:20;;;;;;;29.30;10.05;;;24.80;61.30;;;;;;5035920;28;20029;-74
2022/08/25 07:13:47;;;;;;;16.55;8.15;;;24.90;61.00;;;;;;5053863;28;20426;-75
2022/08/25 07:16:16;;;;;;;12.65;7.75;;;24.90;60.90;;;;;;5053683;28;20497;-74
2022/08/25 07:18:43;;;;;;;19.20;9.43;;;25.10;60.60;;;;;;5035797;28;20029;-74
2022/08/25 07:21:11;;;;;;;12.65;8.85;;;25.20;60.50;;;;;;5035457;28;20457;-74
2022/08/25 07:23:37;;;;;;;12.23;7.40;;;25.30;60.40;;;;;;5053559;28;20390;-74
2022/08/25 07:26:24;;;;;;;13.07;8.50;;;25.40;60.10;;;;;;5053489;28;20025;-73
2022/08/25 07:28:50;;;;;;;13.93;7.80;;;25.50;60.00;;;;;;5035058;28;20109;-73
2022/08/25 07:31:16;;;;;;;13.18;8.50;;;25.70;60.70;;;;;;5032636;28;20013;-73
2022/08/25 07:36:30;;;;;;;11.68;8.13;;;26.00;59.20;;;;;;5021921;28;20048;-74
2022/08/25 07:38:57;;;;;;;9.77;7.95;;;26.20;58.90;;;;;;5053102;28;20473;-74
2022/08/25 07:41:23;;;;;;;13.57;9.10;;;26.30;58.70;;;;;;5035333;28;20032;-74
2022/08/25 07:43:49;;;;;;;11.63;8.13;;;26.50;58.20;;;;;;5035152;28;20436;-74
2022/08/25 07:46:15;;;;;;;18.80;8.93;;;26.60;57.60;;;;;;5035368;28;20025;-74
2022/08/25 07:48:41;;;;;;;11.38;8.50;;;26.80;57.30;;;;;;5053035;28;20016;-74
2022/08/25 07:51:09;;;;;;;11.25;8.70;;;26.80;56.70;;;;;;5053157;28;20025;-74
2022/08/25 07:53:35;;;;;;;16.10;8.80;;;26.80;56.50;;;;;;5053049;28;20474;-75
2022/08/25 07:56:01;;;;;;;11.10;8.85;;;26.80;56.30;;;;;;5035074;28;20037;-74
2022/08/25 07:58:27;;;;;;;20.48;9.57;;;26.80;56.10;;;;;;5026939;28;20017;-73
2022/08/25 08:00:53;;;;;;;14.55;9.02;;;26.80;56.30;;;;;;5031719;28;20032;-73
2022/08/25 08:03:20;;;;;;;17.55;9.95;;;26.90;56.50;;;;;;5032998;28;20491;-73
2022/08/25 08:05:46;;;;;;;15.57;10.48;;;27.00;56.60;;;;;;5051273;28;20024;-73
2022/08/25 08:08:15;;;;;;;19.40;10.45;;;27.10;56.50;;;;;;5052983;28;20025;-73
2022/08/25 08:10:41;;;;;;;20.33;11.45;;;27.10;56.20;;;;;;5052878;28;20025;-74
2022/08/25 08:13:08;;;;;;;18.30;11.85;;;27.20;55.90;;;;;;5052845;28;20059;-74
2022/08/25 08:15:36;;;;;;;25.33;14.38;;;27.30;55.90;;;;;;5052754;28;20070;-74
2022/08/25 08:18:03;;;;;;;19.05;13.65;;;27.40;55.40;;;;;;5052846;28;20014;-74
2022/08/25 08:20:31;;;;;;;24.33;15.73;;;27.50;55.50;;;;;;5034805;28;20665;-74
2022/08/25 08:22:57;;;;;;;26.50;14.57;;;27.60;55.60;;;;;;5034539;28;20041;-74
2022/08/25 08:25:22;;;;;;;23.95;14.70;;;27.60;55.70;;;;;;5050889;28;20096;-74
2022/08/25 08:27:49;;;;;;;25.13;15.20;;;27.70;56.00;;;;;;5032703;28;20643;-74
2022/08/25 08:30:15;;;;;;;29.38;16.75;;;27.80;55.80;;;;;;5033287;28;20096;-74
2022/08/25 08:32:42;;;;;;;22.90;16.15;;;27.80;55.60;;;;;;5032528;28;20061;-74
2022/08/25 08:35:08;;;;;;;23.17;14.63;;;27.90;55.40;;;;;;5032451;28;20045;-74
2022/08/25 08:37:36;;;;;;;25.30;14.35;;;28.00;55.20;;;;;;5032448;28;20472;-74
2022/08/25 08:40:08;;;;;;;18.40;13.05;;;28.00;55.00;;;;;;5014444;28;20394;-74
2022/08/25 08:42:51;;;;;;;24.90;13.40;;;28.10;55.10;;;;;;5032322;28;20025;-74
2022/08/25 08:45:26;;;;;;;23.95;13.25;;;28.10;55.50;;;;;;5032360;28;20018;-74
2022/08/25 08:48:01;;;;;;;21.17;13.02;;;28.20;55.20;;;;;;5031037;28;20509;-73
2022/08/25 08:50:46;;;;;;;20.35;12.35;;;28.20;55.00;;;;;;5032326;28;20071;-73
2022/08/25 08:53:24;;;;;;;19.38;12.45;;;28.30;55.10;;;;;;5032589;28;20026;-73
2022/08/25 08:55:52;;;;;;;22.58;13.20;;;28.30;54.70;;;;;;5032509;28;20418;-73
2022/08/25 08:58:41;;;;;;;18.48;11.70;;;28.30;54.50;;;;;;5032541;28;20076;-73
2022/08/25 09:01:10;;;;;;;22.20;11.23;;;28.30;54.70;;;;;;5027994;28;20064;-73
2022/08/25 09:03:40;;;;;;;20.13;11.63;;;28.30;54.40;;;;;;5053325;28;20090;-73
2022/08/25 09:06:21;;;;;;;21.45;10.77;;;28.30;54.60;;;;;;5036307;28;20029;-74
2022/08/25 09:08:47;;;;;;;15.13;9.85;;;28.40;54.30;;;;;;5036088;28;20024;-75
2022/08/25 09:12:04;;;;;;;19.30;9.52;;;28.40;54.30;;;;;;5053115;28;20028;-73
2022/08/25 09:15:03;;;;;;;17.52;9.93;;;28.60;54.70;;;;;;4991918;28;20611;-73
2022/08/25 09:17:50;;;;;;;18.98;8.80;;;28.80;54.30;;;;;;4993806;28;20068;-74
2022/08/25 09:20:37;;;;;;;15.55;7.78;;;28.90;53.90;;;;;;4994590;28;20034;-73
2022/08/25 09:23:21;;;;;;;12.98;7.38;;;29.10;53.80;;;;;;4994505;28;20074;-73
2022/08/25 09:26:11;;;;;;;10.68;8.02;;;29.30;53.50;;;;;;4978447;28;20416;-74
2022/08/25 09:28:47;;;;;;;12.02;7.55;;;29.40;52.70;;;;;;4975235;28;20038;-74
2022/08/25 09:31:24;;;;;;;11.63;6.63;;;29.50;52.60;;;;;;4975409;28;20053;-74
2022/08/25 09:33:54;;;;;;;8.98;5.93;;;29.60;52.60;;;;;;4975081;28;20117;-74
2022/08/25 09:36:20;;;;;;;11.02;6.43;;;29.60;52.10;;;;;;4974808;28;20031;-74
2022/08/25 09:38:46;;;;;;;17.35;6.15;;;29.60;51.70;;;;;;4974888;28;20046;-74
2022/08/25 09:41:16;;;;;;;10.27;5.55;;;29.70;52.00;;;;;;4958818;28;20031;-74
2022/08/25 09:43:51;;;;;;;11.30;5.40;;;29.60;51.60;;;;;;4958666;28;20041;-73
2022/08/25 09:46:24;;;;;;;9.15;4.93;;;29.70;51.80;;;;;;4975240;28;20554;-74
2022/08/25 09:48:55;;;;;;;9.15;5.60;;;29.80;51.80;;;;;;4982788;28;20559;-74
2022/08/25 09:51:32;;;;;;;6.50;4.78;;;29.80;51.70;;;;;;5018917;28;20057;-74
2022/08/25 09:54:14;;;;;;;6.43;4.28;;;29.90;51.70;;;;;;5019221;28;20080;-74
2022/08/25 09:57:00;;;;;;;4.43;3.67;;;30.10;51.60;;;;;;5035994;28;20026;-72
2022/08/25 09:59:35;;;;;;;4.53;3.45;;;30.20;51.30;;;;;;5030040;28;20371;-72
2022/08/25 10:02:22;;;;;;;4.95;3.15;;;30.40;50.90;;;;;;5055679;28;20515;-72
2022/08/25 10:04:48;;;;;;;3.28;2.53;;;30.40;50.50;;;;;;5054072;28;20025;-73
2022/08/25 10:07:34;;;;;;;2.65;2.38;;;30.60;49.20;;;;;;5037380;28;20509;-73
2022/08/25 10:10:06;;;;;;;4.97;2.65;;;30.60;50.10;;;;;;5037466;28;20368;-73
2022/08/25 10:12:38;;;;;;;3.42;2.15;;;30.70;49.80;;;;;;5055217;28;20114;-73
2022/08/25 10:15:15;;;;;;;4.95;2.00;;;30.80;49.30;;;;;;5055145;28;20036;-73
2022/08/25 10:17:41;;;;;;;5.45;2.10;;;30.80;48.60;;;;;;5055068;28;20063;-73
2022/08/25 10:20:10;;;;;;;3.25;2.50;;;30.90;48.50;;;;;;5053818;28;20048;-73
2022/08/25 10:22:41;;;;;;;2.20;2.00;;;31.00;48.20;;;;;;5051467;28;20041;-72
2022/08/25 10:25:09;;;;;;;6.30;2.70;;;31.10;48.30;;;;;;5035056;28;20018;-73
2022/08/25 10:28:04;;;;;;;6.38;2.78;;;31.20;47.70;;;;;;5034665;28;20025;-73
2022/08/25 10:30:48;;;;;;;3.05;2.25;;;31.30;47.90;;;;;;5033226;28;20041;-73
2022/08/25 10:33:20;;;;;;;;;;;31.30;47.80;;;;;;5053530;28;20054;-73
2022/08/25 10:36:00;;;;;;;4.30;2.13;;;31.40;49.00;;;;;;5054663;28;20267;-73
2022/08/25 10:38:44;;;;;;;3.28;2.65;;;31.40;47.50;;;;;;5053407;28;20044;-73
2022/08/25 10:41:23;;;;;;;3.90;2.78;;;31.50;47.60;;;;;;5054692;28;20038;-73
2022/08/25 10:47:24;;;;;;;9.00;2.95;;;31.60;46.50;;;;;;5054868;28;20032;-73
2022/08/25 10:49:55;;;;;;;5.13;3.35;;;31.70;46.60;;;;;;5054514;28;20087;-73
2022/08/25 10:52:45;;;;;;;4.78;2.92;;;31.80;46.70;;;;;;5036711;28;20108;-73
2022/08/25 10:55:32;;;;;;;3.33;3.03;;;31.90;46.70;;;;;;5054471;28;20025;-73
2022/08/25 10:58:21;;;;;;;4.25;3.22;;;31.90;46.20;;;;;;5054421;28;20025;-73
2022/08/25 11:01:00;;;;;;;3.30;2.75;;;31.90;46.00;;;;;;5045158;28;20479;-73
2022/08/25 11:03:54;;;;;;;12.48;3.22;;;32.00;46.10;;;;;;5016628;28;20029;-73
2022/08/25 11:06:34;;;;;;;5.50;3.42;;;32.10;46.10;;;;;;5033021;28;20083;-73
2022/08/25 11:09:04;;;;;;;5.03;3.80;;;32.20;45.50;;;;;;5034194;28;20067;-73
2022/08/25 11:11:44;;;;;;;7.18;3.55;;;32.20;45.10;;;;;;5033139;28;20033;-73
2022/08/25 11:14:18;;;;;;;5.15;3.63;;;32.20;45.00;;;;;;5016386;28;20037;-73
2022/08/25 11:16:57;;;;;;;6.28;3.88;;;32.20;45.10;;;;;;5034036;28;20530;-73
2022/08/25 11:19:42;;;;;;;5.85;4.00;;;32.20;45.30;;;;;;5032696;28;20471;-73
2022/08/25 11:22:26;;;;;;;6.85;3.67;;;32.30;45.20;;;;;;5019739;28;20381;-73
2022/08/25 11:24:52;;;;;;;;;;;32.40;45.50;;;;;;4994970;28;20041;-73
2022/08/25 11:27:21;;;;;;;7.70;4.38;;;32.50;46.40;;;;;;4994478;28;19907;-73
2022/08/25 11:30:02;;;;;;;9.93;4.70;;;32.60;44.90;;;;;;4993616;28;20030;-74
2022/08/25 11:32:32;;;;;;;9.23;4.50;;;32.70;45.00;;;;;;5029240;28;20025;-74
2022/08/25 11:35:01;;;;;;;12.93;5.15;;;32.80;44.50;;;;;;5013995;28;20030;-73
2022/08/25 11:37:29;;;;;;;8.45;5.55;;;32.80;43.80;;;;;;5013741;28;20064;-74
2022/08/25 11:40:12;;;;;;;7.90;5.20;;;32.80;43.20;;;;;;5013217;28;20022;-74
2022/08/25 11:42:46;;;;;;;9.02;5.30;;;32.70;43.60;;;;;;5013911;28;20025;-74
2022/08/25 11:45:50;;;;;;;9.80;5.63;;;32.80;43.60;;;;;;5029044;28;20029;-74
2022/08/25 11:48:25;;;;;;;13.53;5.80;;;32.80;44.00;;;;;;5028997;28;20036;-74
2022/08/25 11:51:02;;;;;;;8.80;5.72;;;32.70;43.30;;;;;;5013661;28;20033;-74
2022/08/25 11:53:32;;;;;;;7.88;4.78;;;32.70;43.70;;;;;;5028950;28;20058;-74
2022/08/25 11:56:03;;;;;;;8.88;4.22;;;32.70;43.40;;;;;;5013584;28;20100;-74
2022/08/25 11:58:38;;;;;;;8.23;4.60;;;32.60;43.80;;;;;;5013649;28;20060;-74
2022/08/25 12:01:08;;;;;;;8.45;4.43;;;32.50;43.90;;;;;;5000895;28;20025;-74
2022/08/25 12:03:34;;;;;;;9.88;5.20;;;32.50;43.80;;;;;;5012291;28;20026;-74
2022/08/25 12:06:41;;;;;;;10.23;5.28;;;32.40;44.40;;;;;;5013502;28;20429;-74
2022/08/25 12:09:12;;;;;;;12.65;7.20;;;32.30;44.70;;;;;;5013170;28;20037;-74
2022/08/25 12:11:38;;;;;;;9.70;6.57;;;32.40;44.90;;;;;;5028596;28;20057;-74
2022/08/25 12:14:25;;;;;;;11.68;6.95;;;32.50;45.30;;;;;;5028521;28;20022;-74
2022/08/25 12:16:52;;;;;;;8.93;7.18;;;32.60;45.00;;;;;;5013403;28;20391;-74
2022/08/25 12:19:48;;;;;;;15.18;6.93;;;32.80;44.60;;;;;;5028565;28;20018;-73
2022/08/25 12:22:21;;;;;;;10.07;6.15;;;32.90;44.30;;;;;;4999037;28;20091;-74
2022/08/25 12:24:55;;;;;;;13.10;7.72;;;33.00;43.30;;;;;;5013341;28;20025;-73
2022/08/25 12:27:32;;;;;;;12.15;7.18;;;33.20;43.30;;;;;;5011903;28;20030;-73
2022/08/25 12:30:38;;;;;;;10.68;6.88;;;33.30;43.20;;;;;;4997884;28;20030;-74
2022/08/25 12:33:13;;;;;;;14.18;6.55;;;33.40;43.80;;;;;;5019995;28;20068;-73
2022/08/25 12:35:51;;;;;;;14.43;7.40;;;33.50;43.10;;;;;;5032908;28;20071;-75
2022/08/25 12:38:31;;;;;;;11.35;6.68;;;33.60;42.90;;;;;;5032873;28;20097;-73
2022/08/25 12:41:06;;;;;;;13.93;6.07;;;33.70;43.00;;;;;;5032852;28;20469;-73
2022/08/25 12:43:38;;;;;;;20.52;6.78;;;33.80;42.40;;;;;;5014990;28;20022;-73
2022/08/25 12:46:35;;;;;;;11.18;6.80;;;33.90;42.10;;;;;;5032765;28;20083;-74
2022/08/25 12:49:10;;;;;;;11.90;6.88;;;33.90;42.20;;;;;;5014046;28;20069;-74
2022/08/25 12:51:39;;;;;;;12.75;7.10;;;33.90;41.60;;;;;;5034673;28;20040;-74
2022/08/25 12:54:33;;;;;;;9.80;6.07;;;33.90;41.60;;;;;;5036741;28;20372;-73
2022/08/25 12:57:03;;;;;;;11.50;6.68;;;33.80;41.60;;;;;;5018914;28;20079;-74
2022/08/25 12:59:41;;;;;;;11.38;6.68;;;33.80;41.50;;;;;;5036639;28;20109;-73
2022/08/25 13:02:24;;;;;;;8.88;5.95;;;33.80;41.80;;;;;;5054646;28;20413;-73
2022/08/25 13:05:24;;;;;;;15.07;6.95;;;33.70;41.10;;;;;;5056462;28;20017;-74
2022/08/25 13:08:13;;;;;;;11.35;6.13;;;33.60;40.90;;;;;;5056325;28;20029;-75